sensor_id;sensor_type;location;lat;lon;timestamp;P1;durP1;ratioP1;P2;durP2;ratioP2
3083;SDS011;1552;51.952;7.618;2024-03-23T00:54:22;3.73;;;1.33;;
3083;SDS011;1552;51.952;7.618;2024-03-23T00:56:48;9.50;;;1.50;;
3083;SDS011;1552;51.952;7.618;2024-03-23T00:59:14;5.13;;;1.60;;
3083;SDS011;1552;51.952;7.618;2024-03-23T01:01:40;4.27;;;1.73;;
3083;SDS011;1552;51.952;7.618;2024-03-23T01:04:06;3.23;;;1.60;;
3083;SDS011;1552;51.952;7.618;2024-03-23T01:06:31;5.60;;;2.07;;
3083;SDS011;1552;51.952;7.618;2024-03-23T01:08:58;5.10;;;1.73;;
3083;SDS011;1552;51.952;7.618;2024-03-23T01:11:23;5.57;;;1.87;;
3083;SDS011;1552;51.952;7.618;2024-03-23T01:13:50;2.57;;;1.70;;
3083;SDS011;1552;51.952;7.618;2024-03-23T01:16:16;7.47;;;1.57;;
3083;SDS011;1552;51.952;7.618;2024-03-23T01:18:42;3.10;;;1.87;;
3083;SDS011;1552;51.952;7.618;2024-03-23T01:21:07;5.13;;;1.90;;
3083;SDS011;1552;51.952;7.618;2024-03-23T01:23:36;4.47;;;1.80;;
3083;SDS011;1552;51.952;7.618;2024-03-23T01:26:01;3.27;;;1.53;;
3083;SDS011;1552;51.952;7.618;2024-03-23T01:28:27;4.20;;;1.60;;
3083;SDS011;1552;51.952;7.618;2024-03-23T01:30:57;9.83;;;2.33;;
3083;SDS011;1552;51.952;7.618;2024-03-23T01:33:24;2.23;;;1.27;;
3083;SDS011;1552;51.952;7.618;2024-03-23T01:35:49;7.00;;;1.40;;
3083;SDS011;1552;51.952;7.618;2024-03-23T01:38:15;5.33;;;1.90;;
3083;SDS011;1552;51.952;7.618;2024-03-23T01:40:40;3.70;;;1.80;;
3083;SDS011;1552;51.952;7.618;2024-03-23T01:43:07;3.67;;;1.67;;
3083;SDS011;1552;51.952;7.618;2024-03-23T01:45:32;2.40;;;1.53;;
3083;SDS011;1552;51.952;7.618;2024-03-23T01:48:00;5.97;;;1.80;;
3083;SDS011;1552;51.952;7.618;2024-03-23T01:50:25;13.93;;;2.40;;
3083;SDS011;1552;51.952;7.618;2024-03-23T01:52:52;6.43;;;2.20;;
3083;SDS011;1552;51.952;7.618;2024-03-23T01:55:18;4.07;;;1.60;;
3083;SDS011;1552;51.952;7.618;2024-03-23T01:57:44;4.63;;;1.87;;
3083;SDS011;1552;51.952;7.618;2024-03-23T02:00:10;4.43;;;2.20;;
3083;SDS011;1552;51.952;7.618;2024-03-23T02:02:40;5.83;;;2.40;;
3083;SDS011;1552;51.952;7.618;2024-03-23T02:05:07;6.20;;;2.50;;
3083;SDS011;1552;51.952;7.618;2024-03-23T02:07:33;6.73;;;2.43;;
3083;SDS011;1552;51.952;7.618;2024-03-23T02:09:59;9.80;;;2.37;;
3083;SDS011;1552;51.952;7.618;2024-03-23T02:12:26;13.77;;;2.87;;
3083;SDS011;1552;51.952;7.618;2024-03-23T02:14:51;8.13;;;2.77;;
3083;SDS011;1552;51.952;7.618;2024-03-23T02:17:17;4.23;;;2.37;;
3083;SDS011;1552;51.952;7.618;2024-03-23T02:19:43;8.40;;;2.63;;
3083;SDS011;1552;51.952;7.618;2024-03-23T02:22:10;7.73;;;2.30;;
3083;SDS011;1552;51.952;7.618;2024-03-23T02:24:38;6.33;;;2.40;;
3083;SDS011;1552;51.952;7.618;2024-03-23T02:27:04;10.40;;;2.90;;
3083;SDS011;1552;51.952;7.618;2024-03-23T02:29:29;12.10;;;2.90;;
3083;SDS011;1552;51.952;7.618;2024-03-23T02:31:55;3.23;;;2.30;;
3083;SDS011;1552;51.952;7.618;2024-03-23T02:34:21;8.00;;;2.73;;
3083;SDS011;1552;51.952;7.618;2024-03-23T02:36:50;8.40;;;3.10;;
3083;SDS011;1552;51.952;7.618;2024-03-23T02:39:15;16.10;;;3.37;;
3083;SDS011;1552;51.952;7.618;2024-03-23T02:41:42;5.33;;;3.07;;
3083;SDS011;1552;51.952;7.618;2024-03-23T02:44:08;8.13;;;2.90;;
3083;SDS011;1552;51.952;7.618;2024-03-23T02:46:36;9.97;;;2.93;;
3083;SDS011;1552;51.952;7.618;2024-03-23T02:49:02;8.90;;;3.30;;
3083;SDS011;1552;51.952;7.618;2024-03-23T02:51:29;7.33;;;3.20;;
3083;SDS011;1552;51.952;7.618;2024-03-23T02:53:54;7.33;;;2.97;;
3083;SDS011;1552;51.952;7.618;2024-03-23T02:56:21;7.33;;;2.70;;
3083;SDS011;1552;51.952;7.618;2024-03-23T02:58:48;7.00;;;2.93;;
3083;SDS011;1552;51.952;7.618;2024-03-23T03:01:14;7.83;;;2.90;;
3083;SDS011;1552;51.952;7.618;2024-03-23T03:03:39;11.30;;;3.37;;
3083;SDS011;1552;51.952;7.618;2024-03-23T03:06:06;10.77;;;3.97;;
3083;SDS011;1552;51.952;7.618;2024-03-23T03:08:31;6.03;;;3.17;;
3083;SDS011;1552;51.952;7.618;2024-03-23T03:10:58;9.00;;;2.77;;
3083;SDS011;1552;51.952;7.618;2024-03-23T03:13:24;6.30;;;3.20;;
3083;SDS011;1552;51.952;7.618;2024-03-23T03:15:51;5.60;;;3.03;;
3083;SDS011;1552;51.952;7.618;2024-03-23T03:18:18;8.53;;;3.07;;
3083;SDS011;1552;51.952;7.618;2024-03-23T03:20:43;10.07;;;3.47;;
3083;SDS011;1552;51.952;7.618;2024-03-23T03:23:09;13.50;;;3.40;;
3083;SDS011;1552;51.952;7.618;2024-03-23T03:25:35;6.03;;;3.00;;
3083;SDS011;1552;51.952;7.618;2024-03-23T03:28:01;9.10;;;3.43;;
3083;SDS011;1552;51.952;7.618;2024-03-23T03:30:26;11.33;;;3.57;;
3083;SDS011;1552;51.952;7.618;2024-03-23T03:32:54;6.10;;;2.97;;
3083;SDS011;1552;51.952;7.618;2024-03-23T03:35:20;11.67;;;3.60;;
3083;SDS011;1552;51.952;7.618;2024-03-23T03:37:46;13.07;;;3.90;;
3083;SDS011;1552;51.952;7.618;2024-03-23T03:40:12;9.07;;;4.03;;
3083;SDS011;1552;51.952;7.618;2024-03-23T03:42:39;8.53;;;3.47;;
3083;SDS011;1552;51.952;7.618;2024-03-23T03:45:06;13.23;;;3.83;;
3083;SDS011;1552;51.952;7.618;2024-03-23T03:47:32;10.43;;;4.03;;
3083;SDS011;1552;51.952;7.618;2024-03-23T03:49:59;13.00;;;4.13;;
3083;SDS011;1552;51.952;7.618;2024-03-23T03:52:25;11.60;;;4.83;;
3083;SDS011;1552;51.952;7.618;2024-03-23T03:54:51;8.07;;;4.17;;
3083;SDS011;1552;51.952;7.618;2024-03-23T03:57:16;8.80;;;4.30;;
3083;SDS011;1552;51.952;7.618;2024-03-23T03:59:44;13.60;;;3.93;;
3083;SDS011;1552;51.952;7.618;2024-03-23T04:02:09;15.33;;;4.40;;
3083;SDS011;1552;51.952;7.618;2024-03-23T04:04:35;11.17;;;4.67;;
3083;SDS011;1552;51.952;7.618;2024-03-23T04:07:02;8.73;;;4.40;;
3083;SDS011;1552;51.952;7.618;2024-03-23T04:09:30;12.83;;;4.30;;
3083;SDS011;1552;51.952;7.618;2024-03-23T04:11:55;11.10;;;4.00;;
3083;SDS011;1552;51.952;7.618;2024-03-23T04:14:21;9.87;;;4.00;;
3083;SDS011;1552;51.952;7.618;2024-03-23T04:16:47;15.33;;;4.40;;
3083;SDS011;1552;51.952;7.618;2024-03-23T04:19:13;10.60;;;4.77;;
3083;SDS011;1552;51.952;7.618;2024-03-23T04:21:39;14.27;;;4.73;;
3083;SDS011;1552;51.952;7.618;2024-03-23T04:24:06;12.90;;;4.80;;
3083;SDS011;1552;51.952;7.618;2024-03-23T04:26:39;17.20;;;5.70;;
3083;SDS011;1552;51.952;7.618;2024-03-23T04:29:06;18.93;;;5.40;;
3083;SDS011;1552;51.952;7.618;2024-03-23T04:31:31;26.50;;;5.73;;
3083;SDS011;1552;51.952;7.618;2024-03-23T04:34:00;17.10;;;5.33;;
3083;SDS011;1552;51.952;7.618;2024-03-23T04:36:25;16.20;;;4.97;;
3083;SDS011;1552;51.952;7.618;2024-03-23T04:38:52;23.13;;;5.73;;
3083;SDS011;1552;51.952;7.618;2024-03-23T04:41:19;11.50;;;4.73;;
3083;SDS011;1552;51.952;7.618;2024-03-23T04:43:46;20.90;;;5.63;;
3083;SDS011;1552;51.952;7.618;2024-03-23T04:46:11;15.57;;;5.03;;
3083;SDS011;1552;51.952;7.618;2024-03-23T04:48:37;20.50;;;4.80;;
3083;SDS011;1552;51.952;7.618;2024-03-23T04:51:04;18.17;;;6.03;;
3083;SDS011;1552;51.952;7.618;2024-03-23T04:53:30;14.70;;;6.33;;
3083;SDS011;1552;51.952;7.618;2024-03-23T04:55:56;13.90;;;6.07;;
3083;SDS011;1552;51.952;7.618;2024-03-23T04:58:25;15.00;;;6.33;;
3083;SDS011;1552;51.952;7.618;2024-03-23T05:00:54;15.00;;;5.93;;
3083;SDS011;1552;51.952;7.618;2024-03-23T05:03:20;20.13;;;6.20;;
3083;SDS011;1552;51.952;7.618;2024-03-23T05:05:46;12.73;;;5.67;;
3083;SDS011;1552;51.952;7.618;2024-03-23T05:08:12;17.57;;;6.03;;
3083;SDS011;1552;51.952;7.618;2024-03-23T05:10:38;19.53;;;6.27;;
3083;SDS011;1552;51.952;7.618;2024-03-23T05:13:04;16.37;;;5.70;;
3083;SDS011;1552;51.952;7.618;2024-03-23T05:15:31;21.00;;;5.70;;
3083;SDS011;1552;51.952;7.618;2024-03-23T05:17:57;11.80;;;5.60;;
3083;SDS011;1552;51.952;7.618;2024-03-23T05:20:22;14.30;;;5.47;;
3083;SDS011;1552;51.952;7.618;2024-03-23T05:22:49;11.70;;;5.17;;
3083;SDS011;1552;51.952;7.618;2024-03-23T05:25:14;19.83;;;6.13;;
3083;SDS011;1552;51.952;7.618;2024-03-23T05:27:41;21.17;;;7.07;;
3083;SDS011;1552;51.952;7.618;2024-03-23T05:30:07;15.13;;;6.83;;
3083;SDS011;1552;51.952;7.618;2024-03-23T05:32:35;19.33;;;7.00;;
3083;SDS011;1552;51.952;7.618;2024-03-23T05:35:00;20.83;;;6.67;;
3083;SDS011;1552;51.952;7.618;2024-03-23T05:37:26;14.60;;;6.87;;
3083;SDS011;1552;51.952;7.618;2024-03-23T05:39:52;13.33;;;6.47;;
3083;SDS011;1552;51.952;7.618;2024-03-23T05:42:18;16.57;;;7.73;;
3083;SDS011;1552;51.952;7.618;2024-03-23T05:44:44;22.60;;;7.57;;
3083;SDS011;1552;51.952;7.618;2024-03-23T05:47:10;26.23;;;8.43;;
3083;SDS011;1552;51.952;7.618;2024-03-23T05:49:37;23.80;;;8.30;;
3083;SDS011;1552;51.952;7.618;2024-03-23T05:52:03;19.97;;;8.70;;
3083;SDS011;1552;51.952;7.618;2024-03-23T05:54:29;22.83;;;9.57;;
3083;SDS011;1552;51.952;7.618;2024-03-23T05:56:55;21.30;;;8.73;;
3083;SDS011;1552;51.952;7.618;2024-03-23T05:59:20;21.83;;;8.90;;
3083;SDS011;1552;51.952;7.618;2024-03-23T06:01:47;22.53;;;9.20;;
3083;SDS011;1552;51.952;7.618;2024-03-23T06:04:12;24.77;;;10.10;;
3083;SDS011;1552;51.952;7.618;2024-03-23T06:06:40;22.90;;;9.13;;
3083;SDS011;1552;51.952;7.618;2024-03-23T06:09:05;22.97;;;9.50;;
3083;SDS011;1552;51.952;7.618;2024-03-23T06:11:31;23.77;;;10.40;;
3083;SDS011;1552;51.952;7.618;2024-03-23T06:13:57;23.70;;;9.90;;
3083;SDS011;1552;51.952;7.618;2024-03-23T06:16:23;18.77;;;8.17;;
3083;SDS011;1552;51.952;7.618;2024-03-23T06:18:49;26.13;;;10.33;;
3083;SDS011;1552;51.952;7.618;2024-03-23T06:21:16;24.00;;;10.60;;
3083;SDS011;1552;51.952;7.618;2024-03-23T06:23:42;26.90;;;10.77;;
3083;SDS011;1552;51.952;7.618;2024-03-23T06:26:13;20.40;;;9.90;;
3083;SDS011;1552;51.952;7.618;2024-03-23T06:28:38;24.90;;;11.10;;
3083;SDS011;1552;51.952;7.618;2024-03-23T06:31:06;19.63;;;9.83;;
3083;SDS011;1552;51.952;7.618;2024-03-23T06:33:33;26.93;;;9.97;;
3083;SDS011;1552;51.952;7.618;2024-03-23T06:36:00;22.67;;;9.87;;
3083;SDS011;1552;51.952;7.618;2024-03-23T06:38:25;22.47;;;9.60;;
3083;SDS011;1552;51.952;7.618;2024-03-23T06:40:53;17.07;;;8.27;;
3083;SDS011;1552;51.952;7.618;2024-03-23T06:43:18;15.20;;;8.40;;
3083;SDS011;1552;51.952;7.618;2024-03-23T06:45:47;21.67;;;8.53;;
3083;SDS011;1552;51.952;7.618;2024-03-23T06:48:17;13.67;;;7.40;;
3083;SDS011;1552;51.952;7.618;2024-03-23T06:50:44;22.97;;;8.67;;
3083;SDS011;1552;51.952;7.618;2024-03-23T06:53:09;27.87;;;7.97;;
3083;SDS011;1552;51.952;7.618;2024-03-23T06:55:36;25.33;;;7.83;;
3083;SDS011;1552;51.952;7.618;2024-03-23T06:58:02;16.77;;;8.23;;
3083;SDS011;1552;51.952;7.618;2024-03-23T07:00:29;22.50;;;8.53;;
3083;SDS011;1552;51.952;7.618;2024-03-23T07:02:54;17.30;;;8.00;;
3083;SDS011;1552;51.952;7.618;2024-03-23T07:05:20;23.63;;;7.97;;
3083;SDS011;1552;51.952;7.618;2024-03-23T07:07:46;18.30;;;7.57;;
3083;SDS011;1552;51.952;7.618;2024-03-23T07:10:12;19.70;;;7.27;;
3083;SDS011;1552;51.952;7.618;2024-03-23T07:12:37;20.40;;;7.20;;
3083;SDS011;1552;51.952;7.618;2024-03-23T07:15:05;17.40;;;7.27;;
3083;SDS011;1552;51.952;7.618;2024-03-23T07:17:31;18.83;;;7.40;;
3083;SDS011;1552;51.952;7.618;2024-03-23T07:19:58;19.00;;;7.23;;
3083;SDS011;1552;51.952;7.618;2024-03-23T07:22:23;18.80;;;7.77;;
3083;SDS011;1552;51.952;7.618;2024-03-23T07:24:50;20.07;;;6.90;;
3083;SDS011;1552;51.952;7.618;2024-03-23T07:27:17;15.47;;;6.30;;
3083;SDS011;1552;51.952;7.618;2024-03-23T07:29:43;19.23;;;7.43;;
3083;SDS011;1552;51.952;7.618;2024-03-23T07:32:10;13.77;;;6.53;;
3083;SDS011;1552;51.952;7.618;2024-03-23T07:34:36;16.10;;;6.13;;
3083;SDS011;1552;51.952;7.618;2024-03-23T07:37:02;16.50;;;6.27;;
3083;SDS011;1552;51.952;7.618;2024-03-23T07:39:28;17.03;;;6.20;;
3083;SDS011;1552;51.952;7.618;2024-03-23T07:41:54;9.07;;;5.07;;
3083;SDS011;1552;51.952;7.618;2024-03-23T07:44:20;13.13;;;5.90;;
3083;SDS011;1552;51.952;7.618;2024-03-23T07:46:45;17.80;;;5.43;;
3083;SDS011;1552;51.952;7.618;2024-03-23T07:49:13;13.50;;;5.50;;
3083;SDS011;1552;51.952;7.618;2024-03-23T07:51:38;13.10;;;5.50;;
3083;SDS011;1552;51.952;7.618;2024-03-23T07:54:05;12.73;;;5.30;;
3083;SDS011;1552;51.952;7.618;2024-03-23T07:56:31;15.47;;;6.10;;
3083;SDS011;1552;51.952;7.618;2024-03-23T07:58:57;11.97;;;4.07;;
3083;SDS011;1552;51.952;7.618;2024-03-23T08:01:22;8.53;;;4.53;;
3083;SDS011;1552;51.952;7.618;2024-03-23T08:03:49;11.53;;;4.50;;
3083;SDS011;1552;51.952;7.618;2024-03-23T08:06:16;11.53;;;4.13;;
3083;SDS011;1552;51.952;7.618;2024-03-23T08:08:45;12.43;;;3.90;;
3083;SDS011;1552;51.952;7.618;2024-03-23T08:11:10;11.60;;;5.00;;
3083;SDS011;1552;51.952;7.618;2024-03-23T08:13:38;11.70;;;3.83;;
3083;SDS011;1552;51.952;7.618;2024-03-23T08:16:03;10.17;;;3.60;;
3083;SDS011;1552;51.952;7.618;2024-03-23T08:18:30;10.90;;;3.57;;
3083;SDS011;1552;51.952;7.618;2024-03-23T08:20:56;10.97;;;3.90;;
3083;SDS011;1552;51.952;7.618;2024-03-23T08:23:25;8.80;;;4.00;;
3083;SDS011;1552;51.952;7.618;2024-03-23T08:25:50;18.57;;;4.37;;
3083;SDS011;1552;51.952;7.618;2024-03-23T08:28:16;13.23;;;3.43;;
3083;SDS011;1552;51.952;7.618;2024-03-23T08:30:42;4.30;;;2.67;;
3083;SDS011;1552;51.952;7.618;2024-03-23T08:33:08;8.73;;;2.87;;
3083;SDS011;1552;51.952;7.618;2024-03-23T08:35:34;11.10;;;2.83;;
3083;SDS011;1552;51.952;7.618;2024-03-23T08:38:00;6.03;;;2.83;;
3083;SDS011;1552;51.952;7.618;2024-03-23T08:40:27;13.27;;;3.07;;
3083;SDS011;1552;51.952;7.618;2024-03-23T08:42:53;6.93;;;2.83;;
3083;SDS011;1552;51.952;7.618;2024-03-23T08:45:19;11.13;;;2.80;;
3083;SDS011;1552;51.952;7.618;2024-03-23T08:47:45;8.87;;;3.23;;
3083;SDS011;1552;51.952;7.618;2024-03-23T08:50:10;6.57;;;2.27;;
3083;SDS011;1552;51.952;7.618;2024-03-23T08:52:36;8.90;;;2.70;;
3083;SDS011;1552;51.952;7.618;2024-03-23T08:55:02;9.27;;;2.77;;
3083;SDS011;1552;51.952;7.618;2024-03-23T08:57:30;12.47;;;2.90;;
3083;SDS011;1552;51.952;7.618;2024-03-23T08:59:56;6.50;;;2.40;;
3083;SDS011;1552;51.952;7.618;2024-03-23T09:02:22;10.63;;;2.70;;
3083;SDS011;1552;51.952;7.618;2024-03-23T09:04:47;7.23;;;2.87;;
3083;SDS011;1552;51.952;7.618;2024-03-23T09:07:13;9.27;;;2.83;;
3083;SDS011;1552;51.952;7.618;2024-03-23T09:09:39;8.97;;;3.17;;
3083;SDS011;1552;51.952;7.618;2024-03-23T09:12:05;6.37;;;3.40;;
3083;SDS011;1552;51.952;7.618;2024-03-23T09:14:32;10.70;;;3.10;;
3083;SDS011;1552;51.952;7.618;2024-03-23T09:17:00;6.37;;;3.27;;
3083;SDS011;1552;51.952;7.618;2024-03-23T09:19:26;8.50;;;3.37;;
3083;SDS011;1552;51.952;7.618;2024-03-23T09:21:53;8.37;;;3.30;;
3083;SDS011;1552;51.952;7.618;2024-03-23T09:24:18;8.63;;;3.70;;
3083;SDS011;1552;51.952;7.618;2024-03-23T09:26:44;11.73;;;3.27;;
3083;SDS011;1552;51.952;7.618;2024-03-23T09:29:10;9.43;;;3.60;;
3083;SDS011;1552;51.952;7.618;2024-03-23T09:31:37;9.30;;;3.03;;
3083;SDS011;1552;51.952;7.618;2024-03-23T09:34:03;6.33;;;2.70;;
3083;SDS011;1552;51.952;7.618;2024-03-23T09:36:29;6.97;;;2.60;;
3083;SDS011;1552;51.952;7.618;2024-03-23T09:38:56;4.57;;;2.57;;
3083;SDS011;1552;51.952;7.618;2024-03-23T09:41:22;6.07;;;2.27;;
3083;SDS011;1552;51.952;7.618;2024-03-23T09:43:48;3.73;;;2.33;;
3083;SDS011;1552;51.952;7.618;2024-03-23T09:46:14;5.50;;;3.03;;
3083;SDS011;1552;51.952;7.618;2024-03-23T09:48:42;9.00;;;2.77;;
3083;SDS011;1552;51.952;7.618;2024-03-23T09:51:08;8.50;;;3.13;;
3083;SDS011;1552;51.952;7.618;2024-03-23T09:53:35;7.93;;;3.10;;
3083;SDS011;1552;51.952;7.618;2024-03-23T09:56:00;6.50;;;3.47;;
3083;SDS011;1552;51.952;7.618;2024-03-23T09:58:26;5.27;;;3.17;;
3083;SDS011;1552;51.952;7.618;2024-03-23T10:00:52;3.83;;;2.77;;
3083;SDS011;1552;51.952;7.618;2024-03-23T10:03:18;4.93;;;2.97;;
3083;SDS011;1552;51.952;7.618;2024-03-23T10:05:45;6.47;;;2.37;;
3083;SDS011;1552;51.952;7.618;2024-03-23T10:08:17;7.30;;;3.03;;
3083;SDS011;1552;51.952;7.618;2024-03-23T10:10:42;7.27;;;3.10;;
3083;SDS011;1552;51.952;7.618;2024-03-23T10:13:09;8.33;;;2.77;;
3083;SDS011;1552;51.952;7.618;2024-03-23T10:15:34;8.57;;;2.83;;
3083;SDS011;1552;51.952;7.618;2024-03-23T10:18:02;4.57;;;3.07;;
3083;SDS011;1552;51.952;7.618;2024-03-23T10:20:42;8.27;;;2.53;;
3083;SDS011;1552;51.952;7.618;2024-03-23T10:23:11;5.37;;;2.67;;
3083;SDS011;1552;51.952;7.618;2024-03-23T10:25:40;6.97;;;2.27;;
3083;SDS011;1552;51.952;7.618;2024-03-23T10:28:06;5.97;;;2.70;;
3083;SDS011;1552;51.952;7.618;2024-03-23T10:30:32;3.43;;;2.50;;
3083;SDS011;1552;51.952;7.618;2024-03-23T10:33:06;8.10;;;2.33;;
3083;SDS011;1552;51.952;7.618;2024-03-23T10:35:32;7.00;;;2.60;;
3083;SDS011;1552;51.952;7.618;2024-03-23T10:37:58;7.10;;;2.77;;
3083;SDS011;1552;51.952;7.618;2024-03-23T10:40:25;5.73;;;2.53;;
3083;SDS011;1552;51.952;7.618;2024-03-23T10:42:52;4.93;;;2.23;;
3083;SDS011;1552;51.952;7.618;2024-03-23T10:45:18;9.03;;;2.53;;
3083;SDS011;1552;51.952;7.618;2024-03-23T10:47:45;4.40;;;1.97;;
3083;SDS011;1552;51.952;7.618;2024-03-23T10:50:11;7.73;;;2.20;;
3083;SDS011;1552;51.952;7.618;2024-03-23T10:52:37;3.63;;;1.80;;
3083;SDS011;1552;51.952;7.618;2024-03-23T10:55:04;3.17;;;1.43;;
3083;SDS011;1552;51.952;7.618;2024-03-23T10:57:34;4.47;;;1.63;;
3083;SDS011;1552;51.952;7.618;2024-03-23T11:00:02;4.97;;;1.87;;
3083;SDS011;1552;51.952;7.618;2024-03-23T11:02:29;5.17;;;2.17;;
3083;SDS011;1552;51.952;7.618;2024-03-23T11:04:54;3.30;;;2.27;;
3083;SDS011;1552;51.952;7.618;2024-03-23T11:07:30;3.77;;;1.83;;
3083;SDS011;1552;51.952;7.618;2024-03-23T11:09:56;4.37;;;1.83;;
3083;SDS011;1552;51.952;7.618;2024-03-23T11:12:29;3.37;;;1.60;;
3083;SDS011;1552;51.952;7.618;2024-03-23T11:14:59;3.97;;;1.90;;
3083;SDS011;1552;51.952;7.618;2024-03-23T11:17:26;6.53;;;1.70;;
3083;SDS011;1552;51.952;7.618;2024-03-23T11:19:55;7.20;;;1.83;;
3083;SDS011;1552;51.952;7.618;2024-03-23T11:22:38;6.27;;;1.53;;
3083;SDS011;1552;51.952;7.618;2024-03-23T11:25:04;2.57;;;0.87;;
3083;SDS011;1552;51.952;7.618;2024-03-23T11:27:38;0.97;;;0.77;;
3083;SDS011;1552;51.952;7.618;2024-03-23T11:30:14;1.30;;;0.60;;
3083;SDS011;1552;51.952;7.618;2024-03-23T11:32:41;1.60;;;0.83;;
3083;SDS011;1552;51.952;7.618;2024-03-23T11:35:07;5.20;;;1.20;;
3083;SDS011;1552;51.952;7.618;2024-03-23T11:37:35;4.80;;;1.30;;
3083;SDS011;1552;51.952;7.618;2024-03-23T11:40:00;2.53;;;1.20;;
3083;SDS011;1552;51.952;7.618;2024-03-23T11:42:27;2.40;;;1.20;;
3083;SDS011;1552;51.952;7.618;2024-03-23T11:44:52;5.57;;;1.60;;
3083;SDS011;1552;51.952;7.618;2024-03-23T11:47:20;9.40;;;2.03;;
3083;SDS011;1552;51.952;7.618;2024-03-23T11:49:46;2.80;;;1.97;;
3083;SDS011;1552;51.952;7.618;2024-03-23T11:52:14;5.33;;;1.77;;
3083;SDS011;1552;51.952;7.618;2024-03-23T11:54:41;5.50;;;2.00;;
3083;SDS011;1552;51.952;7.618;2024-03-23T11:57:07;8.43;;;1.93;;
3083;SDS011;1552;51.952;7.618;2024-03-23T11:59:33;3.37;;;2.00;;
3083;SDS011;1552;51.952;7.618;2024-03-23T12:02:00;7.23;;;2.13;;
3083;SDS011;1552;51.952;7.618;2024-03-23T12:04:27;8.83;;;1.77;;
3083;SDS011;1552;51.952;7.618;2024-03-23T12:07:08;4.43;;;2.03;;
3083;SDS011;1552;51.952;7.618;2024-03-23T12:09:34;4.13;;;2.20;;
3083;SDS011;1552;51.952;7.618;2024-03-23T12:12:04;4.37;;;1.90;;
3083;SDS011;1552;51.952;7.618;2024-03-23T12:14:30;3.90;;;1.60;;
3083;SDS011;1552;51.952;7.618;2024-03-23T12:16:57;5.97;;;1.73;;
3083;SDS011;1552;51.952;7.618;2024-03-23T12:19:33;3.00;;;1.70;;
3083;SDS011;1552;51.952;7.618;2024-03-23T12:21:59;4.20;;;1.93;;
3083;SDS011;1552;51.952;7.618;2024-03-23T12:24:26;2.53;;;1.73;;
3083;SDS011;1552;51.952;7.618;2024-03-23T12:26:52;5.17;;;1.80;;
3083;SDS011;1552;51.952;7.618;2024-03-23T12:29:17;4.57;;;2.10;;
3083;SDS011;1552;51.952;7.618;2024-03-23T12:31:45;4.23;;;1.87;;
3083;SDS011;1552;51.952;7.618;2024-03-23T12:34:10;3.47;;;1.40;;
3083;SDS011;1552;51.952;7.618;2024-03-23T12:36:38;2.90;;;1.50;;
3083;SDS011;1552;51.952;7.618;2024-03-23T12:39:03;3.83;;;1.50;;
3083;SDS011;1552;51.952;7.618;2024-03-23T12:41:29;2.13;;;1.10;;
3083;SDS011;1552;51.952;7.618;2024-03-23T12:43:55;4.13;;;1.40;;
3083;SDS011;1552;51.952;7.618;2024-03-23T12:46:21;2.83;;;1.50;;
3083;SDS011;1552;51.952;7.618;2024-03-23T12:48:48;2.53;;;1.87;;
3083;SDS011;1552;51.952;7.618;2024-03-23T12:51:14;2.00;;;1.40;;
3083;SDS011;1552;51.952;7.618;2024-03-23T12:53:41;5.47;;;1.70;;
3083;SDS011;1552;51.952;7.618;2024-03-23T12:56:07;3.77;;;1.93;;
3083;SDS011;1552;51.952;7.618;2024-03-23T12:58:36;2.73;;;1.63;;
3083;SDS011;1552;51.952;7.618;2024-03-23T13:01:03;3.37;;;1.50;;
3083;SDS011;1552;51.952;7.618;2024-03-23T13:03:28;5.83;;;2.13;;
3083;SDS011;1552;51.952;7.618;2024-03-23T13:05:54;4.20;;;1.77;;
3083;SDS011;1552;51.952;7.618;2024-03-23T13:08:19;5.23;;;1.70;;
3083;SDS011;1552;51.952;7.618;2024-03-23T13:10:47;7.83;;;1.93;;
3083;SDS011;1552;51.952;7.618;2024-03-23T13:13:13;4.07;;;1.67;;
3083;SDS011;1552;51.952;7.618;2024-03-23T13:15:39;5.10;;;2.57;;
3083;SDS011;1552;51.952;7.618;2024-03-23T13:18:05;4.30;;;1.80;;
3083;SDS011;1552;51.952;7.618;2024-03-23T13:20:30;7.00;;;2.27;;
3083;SDS011;1552;51.952;7.618;2024-03-23T13:22:57;7.70;;;2.10;;
3083;SDS011;1552;51.952;7.618;2024-03-23T13:25:22;5.60;;;1.77;;
3083;SDS011;1552;51.952;7.618;2024-03-23T13:27:50;5.97;;;1.73;;
3083;SDS011;1552;51.952;7.618;2024-03-23T13:30:15;6.77;;;1.70;;
3083;SDS011;1552;51.952;7.618;2024-03-23T13:32:41;2.73;;;1.80;;
3083;SDS011;1552;51.952;7.618;2024-03-23T13:35:07;2.87;;;1.57;;
3083;SDS011;1552;51.952;7.618;2024-03-23T13:37:33;3.50;;;1.30;;
3083;SDS011;1552;51.952;7.618;2024-03-23T13:39:59;0.90;;;0.80;;
3083;SDS011;1552;51.952;7.618;2024-03-23T13:42:25;1.03;;;0.80;;
3083;SDS011;1552;51.952;7.618;2024-03-23T13:44:52;2.77;;;1.00;;
3083;SDS011;1552;51.952;7.618;2024-03-23T13:47:18;3.30;;;0.87;;
3083;SDS011;1552;51.952;7.618;2024-03-23T13:49:44;8.63;;;1.23;;
3083;SDS011;1552;51.952;7.618;2024-03-23T13:52:10;0.70;;;0.70;;
3083;SDS011;1552;51.952;7.618;2024-03-23T13:54:36;1.00;;;0.57;;
3083;SDS011;1552;51.952;7.618;2024-03-23T13:57:02;2.20;;;0.93;;
3083;SDS011;1552;51.952;7.618;2024-03-23T13:59:28;3.93;;;1.27;;
3083;SDS011;1552;51.952;7.618;2024-03-23T14:01:55;3.37;;;1.13;;
3083;SDS011;1552;51.952;7.618;2024-03-23T14:04:21;2.23;;;1.20;;
3083;SDS011;1552;51.952;7.618;2024-03-23T14:06:48;3.43;;;1.63;;
3083;SDS011;1552;51.952;7.618;2024-03-23T14:09:14;4.73;;;1.57;;
3083;SDS011;1552;51.952;7.618;2024-03-23T14:11:46;2.80;;;1.30;;
3083;SDS011;1552;51.952;7.618;2024-03-23T14:14:11;5.03;;;1.43;;
3083;SDS011;1552;51.952;7.618;2024-03-23T14:16:37;1.50;;;1.03;;
3083;SDS011;1552;51.952;7.618;2024-03-23T14:19:05;3.07;;;1.30;;
3083;SDS011;1552;51.952;7.618;2024-03-23T14:21:31;6.90;;;1.90;;
3083;SDS011;1552;51.952;7.618;2024-03-23T14:23:57;5.83;;;1.80;;
3083;SDS011;1552;51.952;7.618;2024-03-23T14:26:23;4.50;;;1.40;;
3083;SDS011;1552;51.952;7.618;2024-03-23T14:28:49;3.50;;;1.60;;
3083;SDS011;1552;51.952;7.618;2024-03-23T14:31:15;3.30;;;1.27;;
3083;SDS011;1552;51.952;7.618;2024-03-23T14:33:40;1.83;;;1.30;;
3083;SDS011;1552;51.952;7.618;2024-03-23T14:36:12;5.40;;;1.60;;
3083;SDS011;1552;51.952;7.618;2024-03-23T14:38:38;6.10;;;1.33;;
3083;SDS011;1552;51.952;7.618;2024-03-23T14:41:04;3.67;;;1.53;;
3083;SDS011;1552;51.952;7.618;2024-03-23T14:43:29;1.67;;;0.97;;
3083;SDS011;1552;51.952;7.618;2024-03-23T14:46:06;1.50;;;0.87;;
3083;SDS011;1552;51.952;7.618;2024-03-23T14:48:31;3.80;;;1.27;;
3083;SDS011;1552;51.952;7.618;2024-03-23T14:50:57;6.00;;;1.60;;
3083;SDS011;1552;51.952;7.618;2024-03-23T14:53:25;3.77;;;1.40;;
3083;SDS011;1552;51.952;7.618;2024-03-23T14:55:54;3.23;;;1.03;;
3083;SDS011;1552;51.952;7.618;2024-03-23T14:58:19;2.13;;;1.30;;
3083;SDS011;1552;51.952;7.618;2024-03-23T15:00:47;4.03;;;1.10;;
3083;SDS011;1552;51.952;7.618;2024-03-23T15:03:13;4.53;;;1.47;;
3083;SDS011;1552;51.952;7.618;2024-03-23T15:05:39;5.73;;;1.50;;
3083;SDS011;1552;51.952;7.618;2024-03-23T15:08:05;2.63;;;1.50;;
3083;SDS011;1552;51.952;7.618;2024-03-23T15:10:33;1.73;;;1.17;;
3083;SDS011;1552;51.952;7.618;2024-03-23T15:12:59;7.87;;;1.40;;
3083;SDS011;1552;51.952;7.618;2024-03-23T15:15:25;3.80;;;1.60;;
3083;SDS011;1552;51.952;7.618;2024-03-23T15:17:51;3.43;;;1.60;;
3083;SDS011;1552;51.952;7.618;2024-03-23T15:20:17;1.87;;;1.40;;
3083;SDS011;1552;51.952;7.618;2024-03-23T15:22:43;4.27;;;1.47;;
3083;SDS011;1552;51.952;7.618;2024-03-23T15:25:09;4.50;;;1.20;;
3083;SDS011;1552;51.952;7.618;2024-03-23T15:27:36;4.27;;;1.40;;
3083;SDS011;1552;51.952;7.618;2024-03-23T15:30:02;2.20;;;1.33;;
3083;SDS011;1552;51.952;7.618;2024-03-23T15:32:28;3.60;;;1.20;;
3083;SDS011;1552;51.952;7.618;2024-03-23T15:34:54;1.57;;;1.00;;
3083;SDS011;1552;51.952;7.618;2024-03-23T15:37:19;4.03;;;1.40;;
3083;SDS011;1552;51.952;7.618;2024-03-23T15:39:46;2.63;;;1.40;;
3083;SDS011;1552;51.952;7.618;2024-03-23T15:42:11;3.13;;;1.23;;
3083;SDS011;1552;51.952;7.618;2024-03-23T15:44:39;2.97;;;1.43;;
3083;SDS011;1552;51.952;7.618;2024-03-23T15:47:04;4.77;;;1.67;;
3083;SDS011;1552;51.952;7.618;2024-03-23T15:49:31;3.60;;;1.50;;
3083;SDS011;1552;51.952;7.618;2024-03-23T15:51:56;5.77;;;1.63;;
3083;SDS011;1552;51.952;7.618;2024-03-23T15:54:23;2.60;;;1.60;;
3083;SDS011;1552;51.952;7.618;2024-03-23T15:56:48;3.63;;;1.10;;
3083;SDS011;1552;51.952;7.618;2024-03-23T15:59:15;4.17;;;1.70;;